Time,TemperatureF,DewpointF,PressureIn,WindDirection,WindDirectionDegrees,WindSpeedMPH,WindSpeedGustMPH,Humidity,HourlyPrecipIn,Conditions,Clouds,dailyrainin,SoftwareType,DateUTC
2013-04-06 00:01:00,38.6,19.6,29.96,WSW,252,2.0,3.0,46,0.00,,---,0.00,VWS V14.01,2013-04-06 04:01:00,
2013-04-06 00:02:00,38.6,19.6,29.96,West,271,5.0,5.0,46,0.00,,---,0.00,VWS V14.01,2013-04-06 04:02:00,
2013-04-06 00:03:00,38.6,19.6,29.96,WNW,287,3.0,5.0,46,0.00,,---,0.00,VWS V14.01,2013-04-06 04:03:00,
2013-04-06 00:05:00,38.6,19.6,29.96,WNW,295,2.0,3.0,46,0.00,,---,0.00,VWS V14.01,2013-04-06 04:05:00,
2013-04-06 00:10:00,38.3,19.9,29.96,NW,323,2.0,5.0,47,0.00,,---,0.00,VWS V14.01,2013-04-06 04:10:00,
2013-04-06 00:15:00,38.2,19.8,29.96,WNW,284,3.0,3.0,47,0.00,,---,0.00,VWS V14.01,2013-04-06 04:15:00,
2013-04-06 00:20:00,38.2,19.8,29.96,West,263,2.0,6.0,47,0.00,,---,0.00,VWS V14.01,2013-04-06 04:20:00,
2013-04-06 00:25:00,38.0,20.1,29.96,West,267,3.0,4.0,48,0.00,,---,0.00,VWS V14.01,2013-04-06 04:25:00,
2013-04-06 00:30:00,37.8,19.9,29.96,WNW,298,3.0,5.0,48,0.00,,---,0.00,VWS V14.01,2013-04-06 04:30:00,
2013-04-06 00:35:00,37.8,19.9,29.96,WNW,298,3.0,4.0,48,0.00,,---,0.00,VWS V14.01,2013-04-06 04:35:00,
2013-04-06 00:40:00,37.6,19.7,29.96,NW,305,3.0,4.0,48,0.00,,---,0.00,VWS V14.01,2013-04-06 04:40:00,
2013-04-06 00:45:00,37.5,19.6,29.97,WNW,282,1.0,2.0,48,0.00,,---,0.00,VWS V14.01,2013-04-06 04:45:00,
2013-04-06 00:51:00,37.3,19.9,29.98,WNW,297,3.0,6.0,49,0.00,,---,0.00,VWS V14.01,2013-04-06 04:51:00,
2013-04-06 00:56:00,37.3,19.9,29.98,WNW,282,0.0,4.0,49,0.00,,---,0.00,VWS V14.01,2013-04-06 04:56:00,
2013-04-06 01:01:00,37.2,19.8,29.98,NNW,333,1.0,1.0,49,0.00,,---,0.00,VWS V14.01,2013-04-06 05:01:00,
2013-04-06 01:06:00,37.0,20.1,29.98,West,261,2.0,3.0,50,0.00,,---,0.00,VWS V14.01,2013-04-06 05:06:00,
2013-04-06 01:12:00,36.9,20.0,29.98,West,261,1.0,2.0,50,0.00,,---,0.00,VWS V14.01,2013-04-06 05:12:00,
2013-04-06 01:18:00,36.8,19.9,29.98,West,267,0.0,2.0,50,0.00,,---,0.00,VWS V14.01,2013-04-06 05:18:00,
2013-04-06 01:23:00,36.5,20.1,29.98,NW,310,0.0,0.0,51,0.00,,---,0.00,VWS V14.01,2013-04-06 05:23:00,
2013-04-06 01:28:00,36.3,19.9,29.98,NW,319,0.0,1.0,51,0.00,,---,0.00,VWS V14.01,2013-04-06 05:28:00,
2013-04-06 01:33:00,36.2,19.8,29.99,WNW,297,0.0,0.0,51,0.00,,---,0.00,VWS V14.01,2013-04-06 05:33:00,
2013-04-06 01:38:00,36.2,19.8,29.99,NW,325,0.0,0.0,51,0.00,,---,0.00,VWS V14.01,2013-04-06 05:38:00,
2013-04-06 01:44:00,36.0,19.6,29.99,NW,311,1.0,2.0,51,0.00,,---,0.00,VWS V14.01,2013-04-06 05:44:00,
2013-04-06 01:49:00,35.9,19.5,29.99,NW,311,1.0,1.0,51,0.00,,---,0.00,VWS V14.01,2013-04-06 05:49:00,
2013-04-06 01:54:00,35.8,19.9,29.99,NNW,339,0.0,1.0,52,0.00,,---,0.00,VWS V14.01,2013-04-06 05:54:00,
2013-04-06 02:00:00,35.6,19.7,29.99,WSW,244,0.0,1.0,52,0.00,,---,0.00,VWS V14.01,2013-04-06 06:00:00,
2013-04-06 02:06:00,35.6,19.7,30.00,WNW,284,0.0,2.0,52,0.00,,---,0.00,VWS V14.01,2013-04-06 06:06:00,
2013-04-06 02:12:00,35.5,19.6,30.00,West,279,2.0,3.0,52,0.00,,---,0.00,VWS V14.01,2013-04-06 06:12:00,
2013-04-06 02:17:00,35.3,19.5,30.00,WNW,300,0.0,0.0,52,0.00,,---,0.00,VWS V14.01,2013-04-06 06:17:00,
2013-04-06 02:22:00,35.2,19.4,30.00,WNW,300,1.0,2.0,52,0.00,,---,0.00,VWS V14.01,2013-04-06 06:22:00,
2013-04-06 02:27:00,35.0,19.6,30.00,West,265,0.0,0.0,53,0.00,,---,0.00,VWS V14.01,2013-04-06 06:27:00,
2013-04-06 02:32:00,35.0,19.2,30.01,West,279,1.0,2.0,52,0.00,,---,0.00,VWS V14.01,2013-04-06 06:32:00,
2013-04-06 02:38:00,34.9,19.1,30.01,WNW,300,2.0,3.0,52,0.00,,---,0.00,VWS V14.01,2013-04-06 06:38:00,
2013-04-06 02:43:00,34.9,19.1,30.01,WNW,300,0.0,0.0,52,0.00,,---,0.00,VWS V14.01,2013-04-06 06:43:00,
2013-04-06 02:48:00,34.7,19.3,30.01,North,5,0.0,1.0,53,0.00,,---,0.00,VWS V14.01,2013-04-06 06:48:00,
2013-04-06 02:53:00,34.6,19.2,30.02,NW,317,1.0,2.0,53,0.00,,---,0.00,VWS V14.01,2013-04-06 06:53:00,
2013-04-06 02:58:00,34.4,19.0,30.02,NW,308,2.0,3.0,53,0.00,,---,0.00,VWS V14.01,2013-04-06 06:58:00,
2013-04-06 03:04:00,34.4,19.0,30.02,WNW,300,0.0,2.0,53,0.00,,---,0.00,VWS V14.01,2013-04-06 07:04:00,
2013-04-06 03:10:00,34.4,18.6,30.02,NW,304,2.0,2.0,52,0.00,,---,0.00,VWS V14.01,2013-04-06 07:10:00,
2013-04-06 03:15:00,34.4,18.6,30.02,West,280,1.0,4.0,52,0.00,,---,0.00,VWS V14.01,2013-04-06 07:15:00,
2013-04-06 03:20:00,34.3,18.5,30.03,WNW,292,1.0,3.0,52,0.00,,---,0.00,VWS V14.01,2013-04-06 07:20:00,
2013-04-06 03:25:00,34.3,18.1,30.03,WNW,288,1.0,4.0,51,0.00,,---,0.00,VWS V14.01,2013-04-06 07:25:00,
2013-04-06 03:31:00,34.4,18.2,30.03,WNW,282,0.0,2.0,51,0.00,,---,0.00,VWS V14.01,2013-04-06 07:31:00,
2013-04-06 03:36:00,34.4,18.2,30.03,NW,311,1.0,3.0,51,0.00,,---,0.00,VWS V14.01,2013-04-06 07:36:00,
2013-04-06 03:41:00,34.3,18.1,30.04,WNW,286,0.0,0.0,51,0.00,,---,0.00,VWS V14.01,2013-04-06 07:41:00,
2013-04-06 03:47:00,34.1,17.9,30.04,NNW,340,0.0,1.0,51,0.00,,---,0.00,VWS V14.01,2013-04-06 07:47:00,
2013-04-06 03:52:00,34.0,17.8,30.04,WNW,294,0.0,2.0,51,0.00,,---,0.00,VWS V14.01,2013-04-06 07:52:00,
2013-04-06 03:57:00,34.0,17.8,30.04,NW,306,0.0,3.0,51,0.00,,---,0.00,VWS V14.01,2013-04-06 07:57:00,
2013-04-06 04:03:00,33.8,17.6,30.05,WNW,302,0.0,2.0,51,0.00,,---,0.00,VWS V14.01,2013-04-06 08:03:00,
2013-04-06 04:08:00,33.7,17.5,30.05,West,271,0.0,4.0,51,0.00,,---,0.00,VWS V14.01,2013-04-06 08:08:00,
2013-04-06 04:15:00,33.7,17.5,30.05,West,271,0.0,2.0,51,0.00,,---,0.00,VWS V14.01,2013-04-06 08:15:00,
2013-04-06 04:21:00,33.7,17.5,30.06,WSW,257,4.0,5.0,51,0.00,,---,0.00,VWS V14.01,2013-04-06 08:21:00,
2013-04-06 04:27:00,33.7,17.0,30.06,NW,313,2.0,2.0,50,0.00,,---,0.00,VWS V14.01,2013-04-06 08:27:00,
2013-04-06 04:32:00,33.7,17.5,30.07,NNW,329,0.0,2.0,51,0.00,,---,0.00,VWS V14.01,2013-04-06 08:32:00,
2013-04-06 04:37:00,33.7,18.0,30.07,NNW,338,1.0,4.0,52,0.00,,---,0.00,VWS V14.01,2013-04-06 08:37:00,
2013-04-06 04:42:00,33.7,18.8,30.08,NW,316,1.0,10.0,54,0.00,,---,0.00,VWS V14.01,2013-04-06 08:42:00,
2013-04-06 04:47:00,33.7,20.1,30.08,NNE,13,4.0,6.0,57,0.00,,---,0.00,VWS V14.01,2013-04-06 08:47:00,
2013-04-06 04:52:00,33.8,20.6,30.08,NW,316,0.0,3.0,58,0.00,,---,0.00,VWS V14.01,2013-04-06 08:52:00,
2013-04-06 04:57:00,33.8,20.6,30.08,North,360,6.0,7.0,58,0.00,,---,0.00,VWS V14.01,2013-04-06 08:57:00,
2013-04-06 05:03:00,33.7,20.1,30.09,NNW,348,10.0,10.0,57,0.00,,---,0.00,VWS V14.01,2013-04-06 09:03:00,
2013-04-06 05:08:00,33.5,18.6,30.09,NNW,332,2.0,6.0,54,0.00,,---,0.00,VWS V14.01,2013-04-06 09:08:00,
2013-04-06 05:13:00,33.5,18.6,30.09,West,272,2.0,5.0,54,0.00,,---,0.00,VWS V14.01,2013-04-06 09:13:00,
2013-04-06 05:19:00,33.4,18.1,30.10,WNW,290,3.0,3.0,53,0.00,,---,0.00,VWS V14.01,2013-04-06 09:19:00,
2013-04-06 05:24:00,33.2,17.5,30.10,WNW,298,4.0,5.0,52,0.00,,---,0.00,VWS V14.01,2013-04-06 09:24:00,
2013-04-06 05:30:00,33.1,17.0,30.11,WNW,288,2.0,3.0,51,0.00,,---,0.00,VWS V14.01,2013-04-06 09:30:00,
2013-04-06 05:36:00,32.8,16.2,30.11,WNW,299,2.0,3.0,50,0.00,,---,0.00,VWS V14.01,2013-04-06 09:36:00,
2013-04-06 05:42:00,32.7,16.1,30.11,WSW,247,3.0,3.0,50,0.00,,---,0.00,VWS V14.01,2013-04-06 09:42:00,
2013-04-06 05:49:00,32.4,15.4,30.12,NW,306,2.0,3.0,49,0.00,,---,0.00,VWS V14.01,2013-04-06 09:49:00,
2013-04-06 05:54:00,32.2,14.7,30.13,WNW,303,2.0,2.0,48,0.00,,---,0.00,VWS V14.01,2013-04-06 09:54:00,
2013-04-06 06:00:00,31.9,13.0,30.13,WNW,300,2.0,5.0,45,0.00,,---,0.00,VWS V14.01,2013-04-06 10:00:00,
2013-04-06 06:07:00,31.8,11.9,30.13,NW,309,5.0,12.0,43,0.00,,---,0.00,VWS V14.01,2013-04-06 10:07:00,
2013-04-06 06:13:00,31.6,10.6,30.13,NW,317,6.0,6.0,41,0.00,,---,0.00,VWS V14.01,2013-04-06 10:13:00,
2013-04-06 06:18:00,31.5,10.5,30.14,NNW,328,3.0,4.0,41,0.00,,---,0.00,VWS V14.01,2013-04-06 10:18:00,
2013-04-06 06:23:00,31.3,10.9,30.14,WNW,289,2.0,4.0,42,0.00,,---,0.00,VWS V14.01,2013-04-06 10:23:00,
2013-04-06 06:28:00,31.2,10.8,30.14,North,355,0.0,4.0,42,0.00,,---,0.00,VWS V14.01,2013-04-06 10:28:00,
2013-04-06 06:33:00,31.0,10.1,30.15,NW,313,0.0,4.0,41,0.00,,---,0.00,VWS V14.01,2013-04-06 10:33:00,
2013-04-06 06:38:00,30.9,10.5,30.15,NNW,333,3.0,3.0,42,0.00,,---,0.00,VWS V14.01,2013-04-06 10:38:00,
2013-04-06 06:43:00,30.7,10.9,30.15,NW,316,6.0,10.0,43,0.00,,---,0.00,VWS V14.01,2013-04-06 10:43:00,
2013-04-06 06:48:00,30.7,9.8,30.15,WNW,288,9.0,9.0,41,0.00,,---,0.00,VWS V14.01,2013-04-06 10:48:00,
2013-04-06 06:53:00,30.7,9.8,30.16,NW,304,3.0,5.0,41,0.00,,---,0.00,VWS V14.01,2013-04-06 10:53:00,
2013-04-06 06:59:00,30.6,9.7,30.16,WNW,286,6.0,16.0,41,0.00,,---,0.00,VWS V14.01,2013-04-06 10:59:00,
2013-04-06 07:05:00,30.6,9.2,30.16,NW,307,14.0,14.0,40,0.00,,---,0.00,VWS V14.01,2013-04-06 11:05:00,
2013-04-06 07:11:00,30.6,9.2,30.17,WNW,292,10.0,15.0,40,0.00,,---,0.00,VWS V14.01,2013-04-06 11:11:00,
2013-04-06 07:17:00,30.6,9.2,30.17,WNW,296,5.0,5.0,40,0.00,,---,0.00,VWS V14.01,2013-04-06 11:17:00,
2013-04-06 07:23:00,30.6,9.2,30.18,West,261,5.0,5.0,40,0.00,,---,0.00,VWS V14.01,2013-04-06 11:23:00,
2013-04-06 07:28:00,30.6,9.2,30.18,NNW,336,14.0,15.0,40,0.00,,---,0.00,VWS V14.01,2013-04-06 11:28:00,
2013-04-06 07:33:00,30.6,9.2,30.18,NNW,347,4.0,5.0,40,0.00,,---,0.00,VWS V14.01,2013-04-06 11:33:00,
2013-04-06 07:38:00,30.6,9.2,30.19,WNW,296,4.0,7.0,40,0.00,,---,0.00,VWS V14.01,2013-04-06 11:38:00,
2013-04-06 07:44:00,30.6,8.6,30.19,North,355,16.0,16.0,39,0.00,,---,0.00,VWS V14.01,2013-04-06 11:44:00,
2013-04-06 07:50:00,30.7,8.1,30.19,West,268,4.0,4.0,38,0.00,,---,0.00,VWS V14.01,2013-04-06 11:50:00,
2013-04-06 07:55:00,30.7,6.3,30.20,NW,304,6.0,12.0,35,0.00,,---,0.00,VWS V14.01,2013-04-06 11:55:00,
2013-04-06 08:01:00,30.9,5.2,30.20,NNW,338,3.0,10.0,33,0.00,,---,0.00,VWS V14.01,2013-04-06 12:01:00,
2013-04-06 08:06:00,30.9,5.2,30.21,North,355,2.0,9.0,33,0.00,,---,0.00,VWS V14.01,2013-04-06 12:06:00,
2013-04-06 08:11:00,31.0,3.9,30.20,WNW,296,8.0,9.0,31,0.00,,---,0.00,VWS V14.01,2013-04-06 12:11:00,
2013-04-06 08:17:00,31.0,3.9,30.21,West,281,4.0,9.0,31,0.00,,---,0.00,VWS V14.01,2013-04-06 12:17:00,
2013-04-06 08:22:00,31.2,4.1,30.21,West,279,3.0,9.0,31,0.00,,---,0.00,VWS V14.01,2013-04-06 12:22:00,
2013-04-06 08:28:00,31.3,4.2,30.21,NNW,336,6.0,8.0,31,0.00,,---,0.00,VWS V14.01,2013-04-06 12:28:00,
2013-04-06 08:34:00,31.3,3.5,30.22,NW,317,6.0,7.0,30,0.00,,---,0.00,VWS V14.01,2013-04-06 12:34:00,
2013-04-06 08:40:00,31.6,3.7,30.21,WNW,297,6.0,11.0,30,0.00,,---,0.00,VWS V14.01,2013-04-06 12:40:00,
2013-04-06 08:45:00,31.8,3.2,30.21,NW,315,2.0,6.0,29,0.00,,---,0.00,VWS V14.01,2013-04-06 12:45:00,
2013-04-06 08:50:00,31.9,3.3,30.22,NW,313,3.0,13.0,29,0.00,,---,0.00,VWS V14.01,2013-04-06 12:50:00,
2013-04-06 08:56:00,32.1,4.2,30.22,WNW,291,3.0,5.0,30,0.00,,---,0.00,VWS V14.01,2013-04-06 12:56:00,
2013-04-06 09:02:00,32.4,3.7,30.22,NW,314,5.0,15.0,29,0.00,,---,0.00,VWS V14.01,2013-04-06 13:02:00,
2013-04-06 09:07:00,32.5,3.0,30.22,NNW,329,6.0,7.0,28,0.00,,---,0.00,VWS V14.01,2013-04-06 13:07:00,
2013-04-06 09:12:00,32.8,2.5,30.22,NNW,327,10.0,12.0,27,0.00,,---,0.00,VWS V14.01,2013-04-06 13:12:00,
2013-04-06 09:17:00,32.9,3.4,30.23,WNW,290,6.0,13.0,28,0.00,,---,0.00,VWS V14.01,2013-04-06 13:17:00,
2013-04-06 09:22:00,32.9,3.4,30.23,East,92,3.0,5.0,28,0.00,,---,0.00,VWS V14.01,2013-04-06 13:22:00,
2013-04-06 09:28:00,33.1,2.8,30.23,NW,326,9.0,13.0,27,0.00,,---,0.00,VWS V14.01,2013-04-06 13:28:00,
2013-04-06 09:33:00,33.2,2.8,30.24,North,355,5.0,7.0,27,0.00,,---,0.00,VWS V14.01,2013-04-06 13:33:00,
2013-04-06 09:39:00,33.4,3.0,30.24,NW,315,4.0,7.0,27,0.00,,---,0.00,VWS V14.01,2013-04-06 13:39:00,
2013-04-06 09:44:00,33.5,3.9,30.24,NW,306,1.0,3.0,28,0.00,,---,0.00,VWS V14.01,2013-04-06 13:44:00,
2013-04-06 09:49:00,33.8,3.4,30.24,NW,312,3.0,5.0,27,0.00,,---,0.00,VWS V14.01,2013-04-06 13:49:00,
2013-04-06 09:54:00,34.0,4.3,30.24,WNW,288,3.0,6.0,28,0.00,,---,0.00,VWS V14.01,2013-04-06 13:54:00,
2013-04-06 09:59:00,34.4,4.7,30.24,North,5,2.0,4.0,28,0.00,,---,0.00,VWS V14.01,2013-04-06 13:59:00,
2013-04-06 10:04:00,34.9,3.5,30.25,NNW,333,4.0,9.0,26,0.00,,---,0.00,VWS V14.01,2013-04-06 14:04:00,
2013-04-06 10:10:00,34.9,4.3,30.25,NE,36,3.0,9.0,27,0.00,,---,0.00,VWS V14.01,2013-04-06 14:10:00,
2013-04-06 10:15:00,35.0,3.6,30.25,NW,325,9.0,10.0,26,0.00,,---,0.00,VWS V14.01,2013-04-06 14:15:00,
2013-04-06 10:20:00,35.2,4.6,30.25,NW,309,6.0,7.0,27,0.00,,---,0.00,VWS V14.01,2013-04-06 14:20:00,
2013-04-06 10:25:00,35.5,3.2,30.25,WNW,286,5.0,12.0,25,0.00,,---,0.00,VWS V14.01,2013-04-06 14:25:00,
2013-04-06 10:31:00,35.9,4.4,30.25,WNW,302,4.0,7.0,26,0.00,,---,0.00,VWS V14.01,2013-04-06 14:31:00,
2013-04-06 10:36:00,36.2,2.9,30.25,West,265,4.0,9.0,24,0.00,,---,0.00,VWS V14.01,2013-04-06 14:36:00,
2013-04-06 10:41:00,36.3,3.0,30.25,WNW,284,2.0,10.0,24,0.00,,---,0.00,VWS V14.01,2013-04-06 14:41:00,
2013-04-06 10:47:00,36.8,4.3,30.25,WNW,294,2.0,5.0,25,0.00,,---,0.00,VWS V14.01,2013-04-06 14:47:00,
2013-04-06 10:54:00,37.5,3.1,30.25,NW,304,5.0,10.0,23,0.00,,---,0.00,VWS V14.01,2013-04-06 14:54:00,
2013-04-06 11:00:00,37.9,3.4,30.26,WNW,292,1.0,8.0,23,0.00,,---,0.00,VWS V14.01,2013-04-06 15:00:00,
2013-04-06 11:05:00,38.0,2.5,30.26,NW,308,11.0,11.0,22,0.00,,---,0.00,VWS V14.01,2013-04-06 15:05:00,
2013-04-06 11:10:00,38.0,2.5,30.26,WNW,289,7.0,13.0,22,0.00,,---,0.00,VWS V14.01,2013-04-06 15:10:00,
2013-04-06 11:16:00,38.2,1.7,30.26,West,267,3.0,11.0,21,0.00,,---,0.00,VWS V14.01,2013-04-06 15:16:00,
2013-04-06 11:21:00,38.5,0.9,30.26,WNW,302,1.0,11.0,20,0.00,,---,0.00,VWS V14.01,2013-04-06 15:21:00,
2013-04-06 11:27:00,38.9,1.3,30.26,WNW,294,2.0,11.0,20,0.00,,---,0.00,VWS V14.01,2013-04-06 15:27:00,
2013-04-06 11:32:00,38.9,1.3,30.26,WNW,295,3.0,10.0,20,0.00,,---,0.00,VWS V14.01,2013-04-06 15:32:00,
2013-04-06 11:37:00,39.3,2.6,30.26,NNW,340,1.0,5.0,21,0.00,,---,0.00,VWS V14.01,2013-04-06 15:37:00,
2013-04-06 11:43:00,40.2,3.4,30.27,NW,313,0.0,6.0,21,0.00,,---,0.00,VWS V14.01,2013-04-06 15:43:00,
2013-04-06 11:48:00,40.5,3.7,30.26,NW,316,2.0,2.0,21,0.00,,---,0.00,VWS V14.01,2013-04-06 15:48:00,
2013-04-06 11:53:00,40.9,5.0,30.27,WSW,237,8.0,8.0,22,0.00,,---,0.00,VWS V14.01,2013-04-06 15:53:00,
2013-04-06 11:59:00,40.3,4.5,30.27,WNW,298,3.0,3.0,22,0.00,,---,0.00,VWS V14.01,2013-04-06 15:59:00,
2013-04-06 12:05:00,40.8,3.9,30.27,WSW,255,3.0,5.0,21,0.00,,---,0.00,VWS V14.01,2013-04-06 16:05:00,
2013-04-06 12:10:00,41.8,3.7,30.27,WNW,302,0.0,5.0,20,0.00,,---,0.00,VWS V14.01,2013-04-06 16:10:00,
2013-04-06 12:16:00,42.1,3.9,30.27,WNW,294,2.0,3.0,20,0.00,,---,0.00,VWS V14.01,2013-04-06 16:16:00,
2013-04-06 12:21:00,42.3,5.2,30.26,WSW,246,2.0,4.0,21,0.00,,---,0.00,VWS V14.01,2013-04-06 16:21:00,
2013-04-06 12:27:00,42.2,4.0,30.26,WSW,246,7.0,10.0,20,0.00,,---,0.00,VWS V14.01,2013-04-06 16:27:00,
2013-04-06 12:33:00,42.1,5.0,30.25,SW,215,4.0,11.0,21,0.00,,---,0.00,VWS V14.01,2013-04-06 16:33:00,
2013-04-06 12:38:00,42.1,2.8,30.26,WNW,286,3.0,11.0,19,0.00,,---,0.00,VWS V14.01,2013-04-06 16:38:00,
2013-04-06 12:43:00,42.6,3.2,30.26,NW,313,1.0,6.0,19,0.00,,---,0.00,VWS V14.01,2013-04-06 16:43:00,
2013-04-06 12:48:00,43.1,4.8,30.26,WSW,237,0.0,4.0,20,0.00,,---,0.00,VWS V14.01,2013-04-06 16:48:00,
2013-04-06 12:55:00,43.2,4.8,30.26,WNW,297,7.0,7.0,20,0.00,,---,0.00,VWS V14.01,2013-04-06 16:55:00,
2013-04-06 13:00:00,43.1,3.7,30.26,SSW,205,4.0,5.0,19,0.00,,---,0.00,VWS V14.01,2013-04-06 17:00:00,
2013-04-06 13:06:00,43.3,2.7,30.26,WNW,282,3.0,3.0,18,0.00,,---,0.00,VWS V14.01,2013-04-06 17:06:00,
2013-04-06 13:12:00,44.2,4.6,30.26,WNW,302,4.0,5.0,19,0.00,,---,0.00,VWS V14.01,2013-04-06 17:12:00,
2013-04-06 13:18:00,44.8,5.1,30.26,WNW,294,0.0,4.0,19,0.00,,---,0.00,VWS V14.01,2013-04-06 17:18:00,
2013-04-06 13:23:00,45.2,6.5,30.25,WNW,282,2.0,5.0,20,0.00,,---,0.00,VWS V14.01,2013-04-06 17:23:00,
2013-04-06 13:29:00,45.2,3.0,30.25,WSW,248,3.0,4.0,17,0.00,,---,0.00,VWS V14.01,2013-04-06 17:29:00,
2013-04-06 13:35:00,45.1,4.1,30.25,West,271,1.0,4.0,18,0.00,,---,0.00,VWS V14.01,2013-04-06 17:35:00,
2013-04-06 13:40:00,44.6,4.9,30.25,WSW,251,4.0,5.0,19,0.00,,---,0.00,VWS V14.01,2013-04-06 17:40:00,
2013-04-06 13:45:00,44.6,3.7,30.25,South,190,9.0,10.0,18,0.00,,---,0.00,VWS V14.01,2013-04-06 17:45:00,
2013-04-06 13:50:00,44.2,4.6,30.26,SW,221,1.0,5.0,19,0.00,,---,0.00,VWS V14.01,2013-04-06 17:50:00,
2013-04-06 13:55:00,44.5,5.9,30.26,WNW,297,4.0,4.0,20,0.00,,---,0.00,VWS V14.01,2013-04-06 17:55:00,
2013-04-06 14:00:00,45.4,4.4,30.25,WSW,239,0.0,4.0,18,0.00,,---,0.00,VWS V14.01,2013-04-06 18:00:00,
2013-04-06 14:08:00,46.1,6.2,30.25,SW,233,0.0,1.0,19,0.00,,---,0.00,VWS V14.01,2013-04-06 18:08:00,
2013-04-06 14:13:00,46.4,7.5,30.25,SSW,209,3.0,4.0,20,0.00,,---,0.00,VWS V14.01,2013-04-06 18:13:00,
2013-04-06 14:20:00,46.5,5.3,30.25,West,275,4.0,5.0,18,0.00,,---,0.00,VWS V14.01,2013-04-06 18:20:00,
2013-04-06 14:26:00,46.5,6.5,30.25,WNW,292,1.0,3.0,19,0.00,,---,0.00,VWS V14.01,2013-04-06 18:26:00,
2013-04-06 14:32:00,46.8,6.7,30.25,NW,319,3.0,3.0,19,0.00,,---,0.00,VWS V14.01,2013-04-06 18:32:00,
2013-04-06 14:37:00,47.1,8.1,30.25,West,266,1.0,3.0,20,0.00,,---,0.00,VWS V14.01,2013-04-06 18:37:00,
2013-04-06 14:43:00,47.1,4.5,30.25,WNW,296,0.0,3.0,17,0.00,,---,0.00,VWS V14.01,2013-04-06 18:43:00,
2013-04-06 14:48:00,47.0,4.5,30.25,West,269,2.0,6.0,17,0.00,,---,0.00,VWS V14.01,2013-04-06 18:48:00,
2013-04-06 14:54:00,47.4,6.0,30.25,North,11,1.0,5.0,18,0.00,,---,0.00,VWS V14.01,2013-04-06 18:54:00,
2013-04-06 14:59:00,47.7,5.0,30.25,WNW,289,1.0,2.0,17,0.00,,---,0.00,VWS V14.01,2013-04-06 18:59:00,
2013-04-06 15:04:00,47.6,6.2,30.25,WNW,303,1.0,4.0,18,0.00,,---,0.00,VWS V14.01,2013-04-06 19:04:00,
2013-04-06 15:10:00,47.7,5.0,30.25,NW,313,1.0,5.0,17,0.00,,---,0.00,VWS V14.01,2013-04-06 19:10:00,
2013-04-06 15:15:00,48.2,4.1,30.25,WNW,294,1.0,4.0,16,0.00,,---,0.00,VWS V14.01,2013-04-06 19:15:00,
2013-04-06 15:21:00,48.3,4.2,30.25,WNW,296,5.0,9.0,16,0.00,,---,0.00,VWS V14.01,2013-04-06 19:21:00,
2013-04-06 15:26:00,48.3,6.8,30.24,NNW,340,0.0,2.0,18,0.00,,---,0.00,VWS V14.01,2013-04-06 19:26:00,
2013-04-06 15:32:00,48.9,4.7,30.24,NNW,347,2.0,4.0,16,0.00,,---,0.00,VWS V14.01,2013-04-06 19:32:00,
2013-04-06 15:37:00,49.2,4.9,30.24,West,273,3.0,6.0,16,0.00,,---,0.00,VWS V14.01,2013-04-06 19:37:00,
2013-04-06 15:42:00,49.1,6.2,30.24,West,271,5.0,5.0,17,0.00,,---,0.00,VWS V14.01,2013-04-06 19:42:00,
2013-04-06 15:47:00,49.4,5.1,30.24,WNW,292,6.0,6.0,16,0.00,,---,0.00,VWS V14.01,2013-04-06 19:47:00,
2013-04-06 15:52:00,49.4,3.7,30.24,WNW,294,0.0,4.0,15,0.00,,---,0.00,VWS V14.01,2013-04-06 19:52:00,
2013-04-06 15:58:00,49.2,4.9,30.24,NNW,328,5.0,7.0,16,0.00,,---,0.00,VWS V14.01,2013-04-06 19:58:00,
2013-04-06 16:03:00,49.4,6.4,30.24,NW,309,1.0,1.0,17,0.00,,---,0.00,VWS V14.01,2013-04-06 20:03:00,
2013-04-06 16:10:00,49.6,5.3,30.24,SSW,213,5.0,9.0,16,0.00,,---,0.00,VWS V14.01,2013-04-06 20:10:00,
2013-04-06 16:15:00,49.4,5.1,30.24,WNW,288,3.0,4.0,16,0.00,,---,0.00,VWS V14.01,2013-04-06 20:15:00,
2013-04-06 16:20:00,49.6,3.9,30.24,NW,315,0.0,1.0,15,0.00,,---,0.00,VWS V14.01,2013-04-06 20:20:00,
2013-04-06 16:26:00,49.9,4.1,30.25,West,269,0.0,3.0,15,0.00,,---,0.00,VWS V14.01,2013-04-06 20:26:00,
2013-04-06 16:32:00,49.8,5.4,30.24,WNW,292,0.0,3.0,16,0.00,,---,0.00,VWS V14.01,2013-04-06 20:32:00,
2013-04-06 16:37:00,50.2,5.8,30.25,NW,319,2.0,5.0,16,0.00,,---,0.00,VWS V14.01,2013-04-06 20:37:00,
2013-04-06 16:42:00,50.8,4.8,30.25,North,355,3.0,4.0,15,0.00,,---,0.00,VWS V14.01,2013-04-06 20:42:00,
2013-04-06 16:47:00,51.1,5.1,30.25,West,281,1.0,3.0,15,0.00,,---,0.00,VWS V14.01,2013-04-06 20:47:00,
2013-04-06 16:52:00,51.3,5.2,30.25,SW,234,2.0,5.0,15,0.00,,---,0.00,VWS V14.01,2013-04-06 20:52:00,
2013-04-06 16:57:00,50.7,3.2,30.25,NW,325,0.0,2.0,14,0.00,,---,0.00,VWS V14.01,2013-04-06 20:57:00,
2013-04-06 17:02:00,50.2,4.3,30.25,WSW,256,1.0,3.0,15,0.00,,---,0.00,VWS V14.01,2013-04-06 21:02:00,
2013-04-06 17:08:00,49.8,4.0,30.25,NNE,20,5.0,5.0,15,0.00,,---,0.00,VWS V14.01,2013-04-06 21:08:00,
2013-04-06 17:13:00,50.2,4.3,30.25,NW,325,0.0,1.0,15,0.00,,---,0.00,VWS V14.01,2013-04-06 21:13:00,
2013-04-06 17:19:00,50.7,4.8,30.25,WNW,301,0.0,2.0,15,0.00,,---,0.00,VWS V14.01,2013-04-06 21:19:00,
2013-04-06 17:24:00,50.5,3.1,30.25,North,9,0.0,0.0,14,0.00,,---,0.00,VWS V14.01,2013-04-06 21:24:00,
2013-04-06 17:30:00,50.7,3.2,30.26,WNW,292,0.0,4.0,14,0.00,,---,0.00,VWS V14.01,2013-04-06 21:30:00,
2013-04-06 17:36:00,50.4,4.5,30.26,SSW,195,0.0,1.0,15,0.00,,---,0.00,VWS V14.01,2013-04-06 21:36:00,
2013-04-06 17:42:00,50.4,7.2,30.26,WNW,284,0.0,1.0,17,0.00,,---,0.00,VWS V14.01,2013-04-06 21:42:00,
2013-04-06 17:48:00,51.0,6.4,30.26,SW,234,3.0,3.0,16,0.00,,---,0.00,VWS V14.01,2013-04-06 21:48:00,
2013-04-06 17:53:00,50.4,4.5,30.26,SW,229,0.0,1.0,15,0.00,,---,0.00,VWS V14.01,2013-04-06 21:53:00,
2013-04-06 17:58:00,50.4,4.5,30.27,SW,229,1.0,1.0,15,0.00,,---,0.00,VWS V14.01,2013-04-06 21:58:00,
2013-04-06 18:03:00,50.7,4.8,30.26,SW,229,0.0,0.0,15,0.00,,---,0.00,VWS V14.01,2013-04-06 22:03:00,
2013-04-06 18:08:00,51.0,3.5,30.27,SW,229,1.0,2.0,14,0.00,,---,0.00,VWS V14.01,2013-04-06 22:08:00,
2013-04-06 18:14:00,50.1,2.8,30.27,SW,229,0.0,1.0,14,0.00,,---,0.00,VWS V14.01,2013-04-06 22:14:00,
2013-04-06 18:20:00,49.6,2.4,30.27,NE,46,0.0,0.0,14,0.00,,---,0.00,VWS V14.01,2013-04-06 22:20:00,
2013-04-06 18:25:00,49.9,4.1,30.27,North,5,0.0,2.0,15,0.00,,---,0.00,VWS V14.01,2013-04-06 22:25:00,
2013-04-06 18:30:00,50.2,4.3,30.27,North,5,0.0,0.0,15,0.00,,---,0.00,VWS V14.01,2013-04-06 22:30:00,
2013-04-06 18:35:00,50.4,3.0,30.27,WNW,296,0.0,3.0,14,0.00,,---,0.00,VWS V14.01,2013-04-06 22:35:00,
2013-04-06 18:42:00,50.2,4.3,30.27,NNW,328,0.0,0.0,15,0.00,,---,0.00,VWS V14.01,2013-04-06 22:42:00,
2013-04-06 18:47:00,49.6,3.9,30.28,NNW,328,0.0,0.0,15,0.00,,---,0.00,VWS V14.01,2013-04-06 22:47:00,
2013-04-06 18:52:00,49.6,5.3,30.28,NNW,328,0.0,0.0,16,0.00,,---,0.00,VWS V14.01,2013-04-06 22:52:00,
2013-04-06 18:57:00,49.8,5.4,30.28,NNW,328,0.0,0.0,16,0.00,,---,0.00,VWS V14.01,2013-04-06 22:57:00,
2013-04-06 19:02:00,49.4,3.7,30.28,NNW,328,0.0,0.0,15,0.00,,---,0.00,VWS V14.01,2013-04-06 23:02:00,
2013-04-06 19:07:00,49.1,3.5,30.28,NNW,328,0.0,0.0,15,0.00,,---,0.00,VWS V14.01,2013-04-06 23:07:00,
2013-04-06 19:12:00,48.6,1.6,30.28,NNW,328,0.0,0.0,14,0.00,,---,0.00,VWS V14.01,2013-04-06 23:12:00,
2013-04-06 19:18:00,48.2,5.4,30.28,NNW,328,0.0,0.0,17,0.00,,---,0.00,VWS V14.01,2013-04-06 23:18:00,
2013-04-06 19:23:00,47.9,3.9,30.28,NNW,328,0.0,0.0,16,0.00,,---,0.00,VWS V14.01,2013-04-06 23:23:00,
2013-04-06 19:28:00,47.3,4.7,30.28,NNW,328,0.0,0.0,17,0.00,,---,0.00,VWS V14.01,2013-04-06 23:28:00,
2013-04-06 19:33:00,46.7,4.2,30.29,NNW,328,0.0,0.0,17,0.00,,---,0.00,VWS V14.01,2013-04-06 23:33:00,
2013-04-06 19:39:00,46.1,3.7,30.29,NNW,328,0.0,0.0,17,0.00,,---,0.00,VWS V14.01,2013-04-06 23:39:00,
2013-04-06 19:44:00,45.5,3.2,30.29,NNW,328,0.0,1.0,17,0.00,,---,0.00,VWS V14.01,2013-04-06 23:44:00,
2013-04-06 19:50:00,44.9,4.0,30.29,NNW,328,0.0,0.0,18,0.00,,---,0.00,VWS V14.01,2013-04-06 23:50:00,
2013-04-06 19:55:00,44.6,4.9,30.29,NNW,328,0.0,0.0,19,0.00,,---,0.00,VWS V14.01,2013-04-06 23:55:00,
2013-04-06 20:01:00,44.2,5.7,30.29,East,98,0.0,0.0,20,0.00,,---,0.00,VWS V14.01,2013-04-07 00:01:00,
2013-04-06 20:07:00,43.8,6.4,30.30,East,98,0.0,0.0,21,0.00,,---,0.00,VWS V14.01,2013-04-07 00:07:00,
2013-04-06 20:13:00,43.3,6.0,30.30,East,98,0.0,0.0,21,0.00,,---,0.00,VWS V14.01,2013-04-07 00:13:00,
2013-04-06 20:19:00,42.9,6.7,30.30,East,98,0.0,0.0,22,0.00,,---,0.00,VWS V14.01,2013-04-07 00:19:00,
2013-04-06 20:25:00,42.6,6.4,30.30,East,98,0.0,0.0,22,0.00,,---,0.00,VWS V14.01,2013-04-07 00:25:00,
2013-04-06 20:31:00,42.3,6.2,30.30,East,98,0.0,0.0,22,0.00,,---,0.00,VWS V14.01,2013-04-07 00:31:00,
2013-04-06 20:37:00,42.1,7.0,30.30,East,98,0.0,0.0,23,0.00,,---,0.00,VWS V14.01,2013-04-07 00:37:00,
2013-04-06 20:43:00,41.8,6.7,30.30,East,98,0.0,0.0,23,0.00,,---,0.00,VWS V14.01,2013-04-07 00:43:00,
2013-04-06 20:49:00,41.5,7.4,30.30,East,98,0.0,0.0,24,0.00,,---,0.00,VWS V14.01,2013-04-07 00:49:00,
2013-04-06 20:55:00,41.2,8.1,30.30,East,98,0.0,0.0,25,0.00,,---,0.00,VWS V14.01,2013-04-07 00:55:00,
2013-04-06 21:02:00,40.9,7.8,30.30,East,98,0.0,0.0,25,0.00,,---,0.00,VWS V14.01,2013-04-07 01:02:00,
2013-04-06 21:07:00,40.8,8.6,30.31,East,98,0.0,0.0,26,0.00,,---,0.00,VWS V14.01,2013-04-07 01:07:00,
2013-04-06 21:12:00,40.5,8.3,30.31,East,98,0.0,0.0,26,0.00,,---,0.00,VWS V14.01,2013-04-07 01:12:00,
2013-04-06 21:17:00,40.3,9.0,30.31,East,98,0.0,0.0,27,0.00,,---,0.00,VWS V14.01,2013-04-07 01:17:00,
2013-04-06 21:23:00,40.1,8.8,30.32,East,98,0.0,0.0,27,0.00,,---,0.00,VWS V14.01,2013-04-07 01:23:00,
2013-04-06 21:28:00,39.9,9.4,30.31,SE,127,0.0,0.0,28,0.00,,---,0.00,VWS V14.01,2013-04-07 01:28:00,
2013-04-06 21:34:00,39.6,10.0,30.31,SE,127,0.0,0.0,29,0.00,,---,0.00,VWS V14.01,2013-04-07 01:34:00,
2013-04-06 21:39:00,39.6,12.2,30.32,SE,127,0.0,0.0,32,0.00,,---,0.00,VWS V14.01,2013-04-07 01:39:00,
2013-04-06 21:46:00,39.3,14.6,30.31,SE,128,0.0,0.0,36,0.00,,---,0.00,VWS V14.01,2013-04-07 01:46:00,
2013-04-06 21:51:00,39.2,16.3,30.31,SE,128,0.0,0.0,39,0.00,,---,0.00,VWS V14.01,2013-04-07 01:51:00,
2013-04-06 21:56:00,39.1,17.4,30.31,ESE,107,1.0,1.0,41,0.00,,---,0.00,VWS V14.01,2013-04-07 01:56:00,
2013-04-06 22:01:00,38.9,17.8,30.31,ESE,104,0.0,0.0,42,0.00,,---,0.00,VWS V14.01,2013-04-07 02:01:00,
2013-04-06 22:07:00,38.8,18.8,30.31,SSE,161,0.0,0.0,44,0.00,,---,0.00,VWS V14.01,2013-04-07 02:07:00,
2013-04-06 22:12:00,38.6,19.1,30.31,SSE,159,0.0,0.0,45,0.00,,---,0.00,VWS V14.01,2013-04-07 02:12:00,
2013-04-06 22:17:00,38.5,20.0,30.31,SE,145,0.0,0.0,47,0.00,,---,0.00,VWS V14.01,2013-04-07 02:17:00,
2013-04-06 22:22:00,38.2,19.8,30.31,SE,145,0.0,0.0,47,0.00,,---,0.00,VWS V14.01,2013-04-07 02:22:00,
2013-04-06 22:28:00,37.9,20.0,30.31,SE,145,0.0,0.0,48,0.00,,---,0.00,VWS V14.01,2013-04-07 02:28:00,
2013-04-06 22:33:00,37.6,20.2,30.31,SE,145,0.0,0.0,49,0.00,,---,0.00,VWS V14.01,2013-04-07 02:33:00,
2013-04-06 22:38:00,37.5,21.0,30.31,SE,145,0.0,0.0,51,0.00,,---,0.00,VWS V14.01,2013-04-07 02:38:00,
2013-04-06 22:43:00,37.3,21.3,30.31,SE,145,0.0,0.0,52,0.00,,---,0.00,VWS V14.01,2013-04-07 02:43:00,
2013-04-06 22:48:00,37.2,21.7,30.31,SE,145,0.0,0.0,53,0.00,,---,0.00,VWS V14.01,2013-04-07 02:48:00,
2013-04-06 22:53:00,36.9,21.8,30.31,SE,144,0.0,0.0,54,0.00,,---,0.00,VWS V14.01,2013-04-07 02:53:00,
2013-04-06 22:58:00,36.9,21.8,30.31,SE,144,0.0,0.0,54,0.00,,---,0.00,VWS V14.01,2013-04-07 02:58:00,
2013-04-06 23:03:00,36.8,22.2,30.31,SE,144,0.0,0.0,55,0.00,,---,0.00,VWS V14.01,2013-04-07 03:03:00,
2013-04-06 23:08:00,36.6,22.4,30.31,SE,144,0.0,0.0,56,0.00,,---,0.00,VWS V14.01,2013-04-07 03:08:00,
2013-04-06 23:13:00,36.5,22.3,30.32,East,82,0.0,0.0,56,0.00,,---,0.00,VWS V14.01,2013-04-07 03:13:00,
2013-04-06 23:18:00,36.5,22.7,30.31,East,98,0.0,1.0,57,0.00,,---,0.00,VWS V14.01,2013-04-07 03:18:00,
2013-04-06 23:23:00,36.3,23.0,30.31,SE,130,0.0,0.0,58,0.00,,---,0.00,VWS V14.01,2013-04-07 03:23:00,
2013-04-06 23:28:00,36.3,23.0,30.31,SSE,151,0.0,0.0,58,0.00,,---,0.00,VWS V14.01,2013-04-07 03:28:00,
2013-04-06 23:35:00,36.2,22.9,30.31,East,84,0.0,0.0,58,0.00,,---,0.00,VWS V14.01,2013-04-07 03:35:00,
2013-04-06 23:40:00,36.2,22.9,30.31,East,84,0.0,0.0,58,0.00,,---,0.00,VWS V14.01,2013-04-07 03:40:00,
2013-04-06 23:45:00,36.0,22.7,30.31,East,84,0.0,0.0,58,0.00,,---,0.00,VWS V14.01,2013-04-07 03:45:00,
2013-04-06 23:50:00,35.9,23.0,30.31,East,84,0.0,0.0,59,0.00,,---,0.00,VWS V14.01,2013-04-07 03:50:00,
2013-04-06 23:57:00,35.8,22.9,30.31,ESE,107,0.0,0.0,59,0.00,,---,0.00,VWS V14.01,2013-04-07 03:57:00,